Time;durP1;ratioP1;P1;durP2;ratioP2;P2;SDS_P1;SDS_P2;PMS_P1;PMS_P2;Temp;Humidity;BMP_temperature;BMP_pressure;BME280_temperature;BME280_humidity;BME280_pressure;Samples;Min_cycle;Max_cycle;Signal;HPM_P1;HPM_P2
2023/01/15 00:00:40;;;;;;;0.80;0.70;;;14.80;60.40;;;;;;5006152;28;20194;-59
2023/01/15 00:03:06;;;;;;;1.47;0.60;;;14.60;60.80;;;;;;5008660;28;20322;-59
2023/01/15 00:05:35;;;;;;;1.07;0.83;;;14.60;61.00;;;;;;5007509;28;20209;-59
2023/01/15 00:08:01;;;;;;;1.33;0.90;;;14.70;61.60;;;;;;5008649;28;20388;-59
2023/01/15 00:10:27;;;;;;;0.70;0.70;;;14.60;61.60;;;;;;4999532;28;21016;-59
2023/01/15 00:12:52;;;;;;;0.67;0.63;;;14.70;61.60;;;;;;4997028;28;20528;-59
2023/01/15 00:15:18;;;;;;;1.00;0.90;;;15.00;61.10;;;;;;5002203;28;20544;-59
2023/01/15 00:17:44;;;;;;;1.07;0.97;;;15.00;60.80;;;;;;5010406;28;20264;-59
2023/01/15 00:20:10;;;;;;;2.30;0.80;;;15.00;60.60;;;;;;5009892;28;20197;-59
2023/01/15 00:22:35;;;;;;;0.90;0.70;;;15.00;60.70;;;;;;5002826;28;20206;-59
2023/01/15 00:27:45;;;;;;;0.57;0.57;;;15.20;60.90;;;;;;5003012;28;20206;-60
2023/01/15 00:30:13;;;;;;;1.33;0.90;;;15.30;60.80;;;;;;5005972;28;20436;-59
2023/01/15 00:32:39;;;;;;;0.80;0.73;;;15.30;60.80;;;;;;5008488;28;20202;-59
2023/01/15 00:35:06;;;;;;;0.90;0.60;;;15.30;60.10;;;;;;5013253;28;22326;-59
2023/01/15 00:37:31;;;;;;;0.70;0.60;;;15.30;59.90;;;;;;5008649;28;20501;-59
2023/01/15 00:39:57;;;;;;;1.07;0.73;;;15.30;60.00;;;;;;5009898;28;20463;-59
2023/01/15 00:42:23;;;;;;;0.70;0.70;;;15.40;59.90;;;;;;4999027;28;20195;-59
2023/01/15 00:44:48;;;;;;;0.60;0.60;;;15.10;59.80;;;;;;5002458;28;20200;-59
2023/01/15 00:47:14;;;;;;;0.60;0.60;;;15.00;60.50;;;;;;4999643;28;20238;-59
2023/01/15 00:49:43;;;;;;;0.77;0.77;;;15.10;60.20;;;;;;5007421;28;20206;-59
2023/01/15 00:52:10;;;;;;;1.93;0.97;;;15.20;60.10;;;;;;5009562;28;20275;-60
2023/01/15 00:54:35;;;;;;;0.60;0.60;;;15.30;59.70;;;;;;5010167;28;20510;-59
2023/01/15 00:57:01;;;;;;;0.83;0.83;;;15.20;59.90;;;;;;5003659;28;20492;-59
2023/01/15 00:59:26;;;;;;;0.80;0.70;;;15.30;59.40;;;;;;5013526;28;20198;-60
2023/01/15 01:01:52;;;;;;;0.77;0.77;;;15.30;59.30;;;;;;5007205;28;20240;-59
2023/01/15 01:04:17;;;;;;;0.60;0.60;;;15.20;59.40;;;;;;4996202;28;20194;-59
2023/01/15 01:06:43;;;;;;;1.23;0.70;;;15.30;59.30;;;;;;5000699;28;20209;-59
2023/01/15 01:09:13;;;;;;;1.43;0.80;;;15.30;59.00;;;;;;5009768;28;20955;-59
2023/01/15 01:11:39;;;;;;;0.70;0.70;;;15.40;59.10;;;;;;5002834;28;20617;-59
2023/01/15 01:14:04;;;;;;;1.17;0.97;;;15.50;58.70;;;;;;5008983;28;20628;-59
2023/01/15 01:16:36;;;;;;;0.80;0.60;;;15.40;58.50;;;;;;5011786;28;20234;-59
2023/01/15 01:19:16;;;;;;;0.80;0.80;;;15.30;59.00;;;;;;5006878;28;20554;-59
2023/01/15 01:21:43;;;;;;;1.77;0.60;;;15.40;59.00;;;;;;5005755;28;20435;-59
2023/01/15 01:24:17;;;;;;;0.70;0.60;;;15.30;58.90;;;;;;5006674;28;20448;-59
2023/01/15 01:26:44;;;;;;;0.70;0.70;;;15.40;58.80;;;;;;5012397;28;20445;-59
2023/01/15 01:29:12;;;;;;;0.63;0.63;;;15.20;58.50;;;;;;5011595;28;20504;-59
2023/01/15 01:31:37;;;;;;;0.73;0.70;;;15.10;58.70;;;;;;4996928;28;20457;-59
2023/01/15 01:34:03;;;;;;;0.80;0.80;;;15.20;58.90;;;;;;5014150;28;20417;-59
2023/01/15 01:36:31;;;;;;;0.80;0.67;;;15.40;58.50;;;;;;5014313;28;20657;-59
2023/01/15 01:38:57;;;;;;;2.10;0.70;;;15.20;58.50;;;;;;5000937;28;20273;-59
2023/01/15 01:41:24;;;;;;;0.93;0.50;;;15.40;58.70;;;;;;4991912;28;20510;-59
2023/01/15 01:44:07;;;;;;;0.60;0.60;;;15.50;58.30;;;;;;4996878;28;20218;-59
2023/01/15 01:46:34;;;;;;;0.60;0.60;;;15.50;58.60;;;;;;5005294;28;20479;-59
2023/01/15 01:49:08;;;;;;;0.80;0.80;;;15.60;58.60;;;;;;5001192;28;20556;-59
2023/01/15 01:51:39;;;;;;;0.70;0.70;;;15.70;58.30;;;;;;5005291;28;21010;-59
2023/01/15 01:54:07;;;;;;;0.83;0.60;;;15.70;58.20;;;;;;5012762;28;20449;-59
2023/01/15 01:56:35;;;;;;;0.80;0.53;;;15.50;58.60;;;;;;5003019;28;20489;-59
2023/01/15 01:59:03;;;;;;;0.63;0.63;;;15.60;58.80;;;;;;5001529;28;20441;-59
2023/01/15 02:01:29;;;;;;;0.60;0.60;;;15.50;59.10;;;;;;5013216;28;20459;-59
2023/01/15 02:03:55;;;;;;;0.60;0.60;;;15.60;59.00;;;;;;5013096;28;20452;-59
2023/01/15 02:06:23;;;;;;;0.70;0.70;;;15.70;59.00;;;;;;4997696;28;20213;-59
2023/01/15 02:08:48;;;;;;;0.50;0.50;;;15.70;58.90;;;;;;5002259;28;20537;-59
2023/01/15 02:11:18;;;;;;;0.57;0.57;;;15.80;58.80;;;;;;4996999;28;20545;-59
2023/01/15 02:13:54;;;;;;;0.80;0.80;;;15.80;58.70;;;;;;5011767;28;20186;-59
2023/01/15 02:16:40;;;;;;;0.83;0.67;;;15.80;58.80;;;;;;5006966;28;20580;-59
2023/01/15 02:19:06;;;;;;;1.50;0.70;;;15.70;59.20;;;;;;5003943;28;20476;-59
2023/01/15 02:21:47;;;;;;;0.73;0.73;;;15.80;59.30;;;;;;4995909;28;20438;-59
2023/01/15 02:24:36;;;;;;;0.50;0.50;;;15.60;59.50;;;;;;4994720;28;20220;-59
2023/01/15 02:27:10;;;;;;;0.80;0.80;;;15.60;59.70;;;;;;4999417;28;20465;-59
2023/01/15 02:29:48;;;;;;;0.83;0.70;;;15.50;59.60;;;;;;5004524;28;20452;-59
2023/01/15 02:32:26;;;;;;;0.60;0.60;;;15.50;59.60;;;;;;5002630;28;20457;-59
2023/01/15 02:34:55;;;;;;;0.60;0.60;;;15.30;60.30;;;;;;5005068;28;20800;-59
2023/01/15 02:37:31;;;;;;;0.63;0.63;;;15.40;60.60;;;;;;4996912;28;20576;-59
2023/01/15 02:39:59;;;;;;;0.63;0.60;;;15.40;60.40;;;;;;5005734;28;20816;-59
2023/01/15 02:42:28;;;;;;;0.50;0.50;;;15.50;60.20;;;;;;5011675;28;20445;-59
2023/01/15 02:44:56;;;;;;;0.60;0.60;;;15.50;60.10;;;;;;5011718;28;20460;-59
2023/01/15 02:47:26;;;;;;;0.80;0.50;;;15.50;60.20;;;;;;4996278;28;20973;-59
2023/01/15 02:49:56;;;;;;;0.60;0.60;;;15.70;60.00;;;;;;5010841;28;20459;-59
2023/01/15 02:52:26;;;;;;;0.60;0.60;;;15.60;59.90;;;;;;4997618;28;20432;-59
2023/01/15 02:55:03;;;;;;;0.60;0.60;;;15.50;60.20;;;;;;5011219;28;20464;-59
2023/01/15 02:57:33;;;;;;;2.77;0.70;;;15.60;60.20;;;;;;5005075;28;20480;-59
2023/01/15 03:00:04;;;;;;;0.60;0.60;;;15.60;60.20;;;;;;4994229;28;20433;-59
2023/01/15 03:02:35;;;;;;;0.50;0.50;;;15.80;59.80;;;;;;5001036;28;20504;-59
2023/01/15 03:05:23;;;;;;;0.60;0.60;;;15.80;59.70;;;;;;5007865;28;20457;-58
2023/01/15 03:07:56;;;;;;;0.60;0.60;;;15.70;59.80;;;;;;5002860;28;20772;-59
2023/01/15 03:10:35;;;;;;;1.47;0.60;;;15.70;60.60;;;;;;5011913;28;20429;-59
2023/01/15 03:13:03;;;;;;;1.40;0.53;;;15.50;61.00;;;;;;4995529;28;20440;-59
2023/01/15 03:18:25;;;;;;;6.47;0.70;;;15.60;61.40;;;;;;4992581;28;20441;-59
2023/01/15 03:20:55;;;;;;;2.30;0.50;;;15.70;61.30;;;;;;5005860;28;20978;-59
2023/01/15 03:23:24;;;;;;;0.50;0.50;;;15.70;61.60;;;;;;5003398;28;20430;-59
2023/01/15 03:25:50;;;;;;;0.60;0.60;;;15.70;61.80;;;;;;5006945;28;20433;-59
2023/01/15 03:28:22;;;;;;;0.63;0.63;;;15.80;62.00;;;;;;5010824;28;20980;-59
2023/01/15 03:30:47;;;;;;;0.73;0.60;;;15.80;61.30;;;;;;5008079;28;20448;-59
2023/01/15 03:33:14;;;;;;;0.57;0.50;;;15.70;61.30;;;;;;5003042;28;20827;-59
2023/01/15 03:35:57;;;;;;;0.60;0.50;;;15.80;61.60;;;;;;5003516;28;20248;-59
2023/01/15 03:38:26;;;;;;;0.60;0.60;;;16.00;61.20;;;;;;5004620;28;20457;-59
2023/01/15 03:41:16;;;;;;;0.90;0.67;;;16.00;61.00;;;;;;4994255;28;20833;-59
2023/01/15 03:44:13;;;;;;;1.13;0.50;;;16.10;60.90;;;;;;4996216;28;20500;-59
2023/01/15 03:46:49;;;;;;;0.60;0.50;;;16.20;60.40;;;;;;4992191;28;20453;-59
2023/01/15 03:49:25;;;;;;;0.60;0.60;;;16.20;60.00;;;;;;5003160;28;20971;-59
2023/01/15 03:51:58;;;;;;;0.90;0.50;;;16.20;60.10;;;;;;4998792;28;20449;-59
2023/01/15 03:54:31;;;;;;;0.50;0.50;;;16.10;60.60;;;;;;4994596;28;20445;-59
2023/01/15 03:57:06;;;;;;;0.77;0.50;;;16.10;60.40;;;;;;5007347;28;20571;-59
2023/01/15 03:59:36;;;;;;;1.33;0.87;;;16.10;60.30;;;;;;5006984;28;20790;-59
2023/01/15 04:02:07;;;;;;;0.90;0.70;;;15.90;60.70;;;;;;5003062;28;20451;-59
2023/01/15 04:04:33;;;;;;;0.57;0.50;;;15.60;61.10;;;;;;5001283;28;20548;-59
2023/01/15 04:07:00;;;;;;;1.13;0.60;;;15.70;61.80;;;;;;5008213;28;20449;-59
2023/01/15 04:09:26;;;;;;;0.50;0.50;;;15.80;61.30;;;;;;5004975;28;20445;-59
2023/01/15 04:11:51;;;;;;;0.73;0.60;;;16.00;61.00;;;;;;5009774;28;20455;-59
2023/01/15 04:14:17;;;;;;;1.47;0.60;;;16.10;60.70;;;;;;5006907;28;20955;-59
2023/01/15 04:16:42;;;;;;;0.67;0.67;;;15.90;60.60;;;;;;5007278;28;20386;-59
2023/01/15 04:19:08;;;;;;;0.50;0.50;;;15.90;61.20;;;;;;5008739;28;20205;-59
2023/01/15 04:21:34;;;;;;;0.60;0.50;;;16.00;61.80;;;;;;5006570;28;20201;-59
2023/01/15 04:23:59;;;;;;;0.70;0.70;;;16.10;60.70;;;;;;4998090;28;20693;-59
2023/01/15 04:26:25;;;;;;;0.67;0.60;;;16.10;60.60;;;;;;5002559;28;20202;-59
2023/01/15 04:28:50;;;;;;;1.07;0.70;;;16.00;61.10;;;;;;5005660;28;20194;-59
2023/01/15 04:31:16;;;;;;;3.63;0.80;;;16.00;61.00;;;;;;5009619;28;20251;-59
2023/01/15 04:33:41;;;;;;;0.80;0.60;;;16.00;60.90;;;;;;4995133;28;20281;-59
2023/01/15 04:36:07;;;;;;;1.67;0.50;;;16.00;61.00;;;;;;5003611;28;20217;-59
2023/01/15 04:38:33;;;;;;;1.17;0.60;;;16.10;61.00;;;;;;5009780;28;20285;-59
2023/01/15 04:46:29;;;;;;;0.67;0.40;;;15.90;61.40;;;;;;5009465;28;20834;-59
2023/01/15 04:48:54;;;;;;;0.50;0.50;;;15.80;61.90;;;;;;5003041;28;20476;-59
2023/01/15 04:51:20;;;;;;;0.50;0.50;;;16.00;61.70;;;;;;5000516;28;20199;-59
2023/01/15 04:53:46;;;;;;;1.57;0.70;;;15.90;61.60;;;;;;4992850;28;20195;-59
2023/01/15 04:56:11;;;;;;;0.50;0.50;;;15.60;62.30;;;;;;5004382;28;20226;-59
2023/01/15 04:58:37;;;;;;;0.50;0.50;;;15.70;62.80;;;;;;5004934;28;20201;-60
2023/01/15 05:01:15;;;;;;;0.50;0.50;;;15.70;62.80;;;;;;4997571;28;20248;-59
2023/01/15 05:03:41;;;;;;;1.10;0.60;;;15.70;62.80;;;;;;4991468;28;20585;-59
2023/01/15 05:06:07;;;;;;;0.60;0.60;;;15.80;62.40;;;;;;4998829;28;20448;-59
2023/01/15 05:08:33;;;;;;;0.53;0.53;;;15.70;62.60;;;;;;5002159;28;20508;-59
2023/01/15 05:11:04;;;;;;;0.60;0.50;;;15.50;62.70;;;;;;5004431;28;20848;-59
2023/01/15 05:13:32;;;;;;;2.70;0.50;;;15.50;63.40;;;;;;4998551;28;20269;-59
2023/01/15 05:16:16;;;;;;;0.50;0.40;;;15.70;63.10;;;;;;5009443;28;20447;-59
2023/01/15 05:18:43;;;;;;;0.50;0.50;;;15.80;62.70;;;;;;5005633;28;20444;-59
2023/01/15 05:21:17;;;;;;;0.60;0.50;;;15.90;62.60;;;;;;4998986;28;20488;-59
2023/01/15 05:23:43;;;;;;;0.70;0.60;;;15.90;62.80;;;;;;5008640;28;20449;-59
2023/01/15 05:26:09;;;;;;;0.60;0.60;;;15.60;62.90;;;;;;5000155;28;20529;-59
2023/01/15 05:28:35;;;;;;;0.60;0.60;;;15.50;64.20;;;;;;5005955;28;20887;-58
2023/01/15 05:31:28;;;;;;;0.60;0.60;;;15.50;66.50;;;;;;5006567;28;20434;-58
2023/01/15 05:33:54;;;;;;;0.83;0.70;;;15.40;67.10;;;;;;5004695;28;20198;-59
2023/01/15 05:36:22;;;;;;;1.03;0.63;;;15.10;68.50;;;;;;5013358;28;20474;-60
2023/01/15 05:38:48;;;;;;;0.60;0.57;;;14.90;69.90;;;;;;5013389;28;20478;-60
2023/01/15 05:44:05;;;;;;;1.07;0.63;;;14.50;70.70;;;;;;5008605;28;20681;-60
2023/01/15 05:46:32;;;;;;;0.80;0.50;;;14.40;70.70;;;;;;5008816;28;20433;-60
2023/01/15 05:49:03;;;;;;;1.47;0.60;;;14.40;70.90;;;;;;4998952;28;20457;-60
2023/01/15 05:51:28;;;;;;;0.93;0.60;;;14.30;71.00;;;;;;5011307;28;20467;-60
2023/01/15 05:53:58;;;;;;;0.60;0.60;;;14.40;70.30;;;;;;5007327;28;20895;-60
2023/01/15 05:56:23;;;;;;;0.60;0.60;;;14.20;70.20;;;;;;5008502;28;20484;-59
2023/01/15 05:58:49;;;;;;;0.70;0.57;;;14.20;69.70;;;;;;5008930;28;20699;-60
2023/01/15 06:01:15;;;;;;;0.60;0.60;;;14.10;70.10;;;;;;5001426;28;20265;-60
2023/01/15 06:03:40;;;;;;;0.50;0.50;;;14.10;69.90;;;;;;4994007;28;20199;-60
2023/01/15 06:06:06;;;;;;;0.83;0.83;;;14.10;69.40;;;;;;5009106;28;20879;-60
2023/01/15 06:08:32;;;;;;;0.50;0.47;;;14.10;68.90;;;;;;4993807;28;20198;-59
2023/01/15 06:10:58;;;;;;;0.90;0.67;;;14.10;68.70;;;;;;5006871;28;20443;-60
2023/01/15 06:13:23;;;;;;;1.27;0.80;;;14.00;69.30;;;;;;5011732;28;20193;-60
2023/01/15 06:15:49;;;;;;;0.70;0.70;;;14.00;68.30;;;;;;5009551;28;20204;-60
2023/01/15 06:18:14;;;;;;;0.80;0.80;;;13.80;68.60;;;;;;5003959;28;20210;-60
2023/01/15 06:20:41;;;;;;;0.83;0.83;;;13.80;69.10;;;;;;5011004;28;20680;-61
2023/01/15 06:23:08;;;;;;;1.80;1.00;;;13.80;69.00;;;;;;4998660;28;20268;-61
2023/01/15 06:25:37;;;;;;;1.10;1.00;;;13.90;68.50;;;;;;5007726;28;20441;-60
2023/01/15 06:28:04;;;;;;;0.60;0.60;;;13.90;68.20;;;;;;5002523;28;20441;-61
2023/01/15 06:30:29;;;;;;;0.80;0.80;;;14.00;68.10;;;;;;5002894;28;20438;-61
2023/01/15 06:32:55;;;;;;;0.90;0.90;;;13.90;67.80;;;;;;4994380;28;20436;-61
2023/01/15 06:35:21;;;;;;;0.80;0.80;;;14.10;67.40;;;;;;4994498;28;20296;-61
2023/01/15 06:37:48;;;;;;;1.20;1.10;;;14.00;66.90;;;;;;4993811;28;20351;-60
2023/01/15 06:40:14;;;;;;;1.30;1.20;;;13.90;67.50;;;;;;4994348;28;20186;-61
2023/01/15 06:48:08;;;;;;;0.73;0.73;;;13.70;66.80;;;;;;5009017;28;20609;-60
2023/01/15 06:50:34;;;;;;;1.03;0.93;;;13.40;66.90;;;;;;5010390;28;20441;-60
2023/01/15 06:53:00;;;;;;;1.17;0.80;;;13.60;67.00;;;;;;5007507;28;20190;-60
2023/01/15 06:55:25;;;;;;;0.70;0.70;;;13.40;66.10;;;;;;4995471;28;20191;-60
2023/01/15 06:57:51;;;;;;;9.63;8.70;;;13.20;65.90;;;;;;5009596;28;20217;-60
2023/01/15 07:00:17;;;;;;;2.80;2.60;;;13.10;65.80;;;;;;5007065;28;20622;-59
2023/01/15 07:02:42;;;;;;;0.60;0.57;;;13.00;66.20;;;;;;5001526;28;20281;-60
2023/01/15 07:05:08;;;;;;;3.37;0.70;;;12.90;66.50;;;;;;5008417;28;20552;-60
2023/01/15 07:07:34;;;;;;;0.67;0.67;;;12.60;67.20;;;;;;5000331;28;20696;-60
2023/01/15 07:09:59;;;;;;;0.50;0.50;;;12.50;67.60;;;;;;5001478;28;20198;-60
2023/01/15 07:12:26;;;;;;;0.80;0.70;;;12.40;68.20;;;;;;5004122;28;20637;-61
2023/01/15 07:14:51;;;;;;;0.57;0.57;;;12.60;68.00;;;;;;5007040;28;20545;-60
2023/01/15 07:17:17;;;;;;;0.80;0.70;;;12.40;67.30;;;;;;5006346;28;20506;-60
2023/01/15 07:19:43;;;;;;;0.60;0.60;;;12.30;67.60;;;;;;5006647;28;20199;-60
2023/01/15 07:22:10;;;;;;;0.70;0.60;;;12.10;67.00;;;;;;5007195;28;20194;-60
2023/01/15 07:24:35;;;;;;;2.00;1.10;;;11.80;67.30;;;;;;5009739;28;20438;-60
2023/01/15 07:27:01;;;;;;;0.50;0.50;;;11.90;67.70;;;;;;5007991;28;20510;-59
2023/01/15 07:29:27;;;;;;;0.63;0.63;;;12.10;66.80;;;;;;4999541;28;20270;-59
2023/01/15 07:31:53;;;;;;;0.60;0.60;;;12.20;66.10;;;;;;5006579;28;20432;-59
2023/01/15 07:34:19;;;;;;;0.80;0.77;;;12.10;65.50;;;;;;5009556;28;20650;-59
2023/01/15 07:36:45;;;;;;;0.50;0.50;;;12.00;65.90;;;;;;5004745;28;20222;-59
2023/01/15 07:39:11;;;;;;;0.50;0.40;;;11.90;65.90;;;;;;5007009;28;20858;-59
2023/01/15 07:50:08;;;;;;;0.60;0.60;;;11.70;67.00;;;;;;5003921;28;20483;-60
2023/01/15 07:52:33;;;;;;;0.70;0.70;;;11.70;66.20;;;;;;5006030;28;20469;-60
2023/01/15 07:55:03;;;;;;;0.70;0.70;;;11.70;66.10;;;;;;5007433;28;20527;-60
2023/01/15 07:57:28;;;;;;;0.60;0.60;;;11.80;66.00;;;;;;5009170;28;20210;-60
2023/01/15 07:59:57;;;;;;;0.60;0.60;;;11.70;65.90;;;;;;5008611;28;20447;-61
2023/01/15 08:02:22;;;;;;;0.50;0.50;;;11.80;65.60;;;;;;5009329;28;20190;-61
2023/01/15 08:04:48;;;;;;;0.60;0.53;;;11.80;65.10;;;;;;4999124;28;22509;-60
2023/01/15 08:07:14;;;;;;;0.50;0.40;;;11.80;65.30;;;;;;5005877;28;20198;-60
2023/01/15 08:09:40;;;;;;;0.50;0.40;;;11.90;65.40;;;;;;5006101;28;20228;-61
2023/01/15 08:17:51;;;;;;;0.60;0.60;;;12.10;64.80;;;;;;4993404;28;20484;-61
2023/01/15 08:20:24;;;;;;;1.43;0.60;;;12.10;64.40;;;;;;5010687;28;20971;-61
2023/01/15 08:22:50;;;;;;;0.50;0.50;;;12.30;64.00;;;;;;5022698;28;20449;-59
2023/01/15 08:25:18;;;;;;;0.50;0.50;;;11.90;63.60;;;;;;5004590;28;20437;-59
2023/01/15 08:27:44;;;;;;;0.50;0.50;;;11.80;64.50;;;;;;5008254;28;20457;-59
2023/01/15 08:30:15;;;;;;;0.70;0.70;;;11.90;65.90;;;;;;5007315;28;20445;-59
2023/01/15 08:32:41;;;;;;;0.50;0.50;;;11.60;65.00;;;;;;5002196;28;20190;-59
2023/01/15 08:35:07;;;;;;;1.03;0.87;;;11.10;65.10;;;;;;5006661;28;20457;-59
2023/01/15 08:37:33;;;;;;;0.60;0.50;;;11.00;67.10;;;;;;5007594;28;20577;-59
2023/01/15 08:39:59;;;;;;;1.00;0.60;;;11.20;67.30;;;;;;4999814;28;21027;-59
2023/01/15 08:42:24;;;;;;;4.10;0.60;;;11.20;66.30;;;;;;5001212;28;20198;-59
2023/01/15 08:44:50;;;;;;;0.70;0.60;;;11.00;67.00;;;;;;5006755;28;20196;-59
2023/01/15 08:47:16;;;;;;;0.60;0.60;;;11.10;67.40;;;;;;5004805;28;20230;-59
2023/01/15 08:49:42;;;;;;;1.23;1.13;;;11.20;67.20;;;;;;5011526;28;20198;-59
2023/01/15 08:52:07;;;;;;;1.13;1.03;;;11.20;66.90;;;;;;5006356;28;20440;-59
2023/01/15 08:54:33;;;;;;;0.80;0.60;;;11.20;67.10;;;;;;5011585;28;20654;-59
2023/01/15 08:56:59;;;;;;;0.60;0.60;;;11.10;67.00;;;;;;5008059;28;20237;-59
2023/01/15 08:59:28;;;;;;;0.63;0.60;;;11.20;67.30;;;;;;5008767;28;20787;-60
2023/01/15 09:01:53;;;;;;;0.67;0.60;;;11.40;66.90;;;;;;5007220;28;20791;-59
2023/01/15 09:04:20;;;;;;;0.80;0.50;;;11.20;65.80;;;;;;5003031;28;20450;-59
2023/01/15 09:06:46;;;;;;;0.70;0.50;;;10.90;66.30;;;;;;5005377;28;20194;-59
2023/01/15 09:09:12;;;;;;;0.70;0.70;;;10.60;67.00;;;;;;5012281;28;20447;-59
2023/01/15 09:11:39;;;;;;;0.70;0.60;;;10.50;67.90;;;;;;5007069;28;20445;-59
2023/01/15 09:14:06;;;;;;;0.60;0.60;;;10.30;68.10;;;;;;5011969;28;20587;-58
2023/01/15 09:16:32;;;;;;;0.50;0.50;;;10.40;68.80;;;;;;5007992;28;20480;-59
2023/01/15 09:18:57;;;;;;;0.60;0.60;;;10.60;67.70;;;;;;5011903;28;20488;-59
2023/01/15 09:21:23;;;;;;;0.50;0.50;;;10.50;67.20;;;;;;5000755;28;20480;-59
2023/01/15 09:23:49;;;;;;;0.80;0.50;;;10.40;67.00;;;;;;5009092;28;20206;-59
2023/01/15 09:26:36;;;;;;;0.63;0.63;;;10.50;67.70;;;;;;5011539;28;20285;-59
2023/01/15 09:29:03;;;;;;;0.60;0.60;;;10.70;67.50;;;;;;5010600;28;20233;-59
2023/01/15 09:31:29;;;;;;;0.60;0.60;;;10.90;67.10;;;;;;5011870;28;20468;-59
2023/01/15 09:33:55;;;;;;;0.50;0.50;;;11.00;66.60;;;;;;5010463;28;20626;-59
2023/01/15 09:36:38;;;;;;;0.70;0.70;;;11.20;65.80;;;;;;5011251;28;22074;-59
2023/01/15 09:39:04;;;;;;;0.70;0.70;;;11.40;65.10;;;;;;5008436;28;20196;-59
2023/01/15 09:42:06;;;;;;;2.90;0.80;;;11.20;65.40;;;;;;5010971;28;20810;-59
2023/01/15 09:45:07;;;;;;;0.53;0.53;;;11.20;65.50;;;;;;5008550;28;20204;-59
2023/01/15 09:47:39;;;;;;;0.63;0.60;;;10.80;65.60;;;;;;5001770;28;21050;-59
2023/01/15 09:50:10;;;;;;;1.13;0.50;;;10.90;66.50;;;;;;5011637;28;20437;-59
2023/01/15 09:53:13;;;;;;;0.80;0.70;;;10.70;66.60;;;;;;4996214;28;21441;-59
2023/01/15 09:55:46;;;;;;;0.60;0.60;;;10.90;66.80;;;;;;5010783;28;20488;-59
2023/01/15 09:58:15;;;;;;;0.60;0.60;;;10.80;66.40;;;;;;5006567;28;20531;-59
2023/01/15 10:00:46;;;;;;;0.50;0.50;;;10.80;67.30;;;;;;5006417;28;20440;-59
2023/01/15 10:03:12;;;;;;;0.70;0.60;;;10.90;66.60;;;;;;5002678;28;20452;-59
2023/01/15 10:05:56;;;;;;;0.70;0.67;;;10.70;65.90;;;;;;5013222;28;20424;-59
2023/01/15 10:08:31;;;;;;;0.67;0.67;;;10.70;66.60;;;;;;5005438;28;20208;-58
2023/01/15 10:11:16;;;;;;;0.70;0.60;;;10.80;66.80;;;;;;5009302;28;20539;-59
2023/01/15 10:13:54;;;;;;;0.70;0.70;;;10.60;65.80;;;;;;5009102;28;20452;-59
2023/01/15 10:16:28;;;;;;;0.90;0.90;;;10.60;66.70;;;;;;5007636;28;20479;-59
2023/01/15 10:18:56;;;;;;;1.73;1.63;;;10.80;66.30;;;;;;5005369;28;20815;-59
2023/01/15 10:21:53;;;;;;;1.00;0.60;;;10.80;65.90;;;;;;5007488;28;20449;-59
2023/01/15 10:24:35;;;;;;;0.80;0.80;;;10.60;66.00;;;;;;5003885;28;20460;-59
2023/01/15 10:27:33;;;;;;;4.37;0.87;;;10.60;66.60;;;;;;5008491;28;20456;-59
2023/01/15 10:30:05;;;;;;;0.60;0.60;;;10.80;66.40;;;;;;5003775;28;20535;-59
2023/01/15 10:32:38;;;;;;;0.60;0.50;;;10.60;65.30;;;;;;5003533;28;20448;-59
2023/01/15 10:35:42;;;;;;;0.70;0.60;;;10.60;66.50;;;;;;5004998;28;20556;-59
2023/01/15 10:38:20;;;;;;;0.60;0.60;;;10.50;66.50;;;;;;5004566;28;20511;-59
2023/01/15 10:41:04;;;;;;;0.70;0.70;;;10.60;67.10;;;;;;5004797;28;20463;-59
2023/01/15 10:43:35;;;;;;;0.90;0.50;;;10.60;66.00;;;;;;5003271;28;20948;-59
2023/01/15 10:46:11;;;;;;;0.67;0.57;;;10.60;65.60;;;;;;5005374;28;20441;-59
2023/01/15 10:48:49;;;;;;;0.50;0.40;;;10.60;65.60;;;;;;5002471;28;20475;-59
2023/01/15 10:51:37;;;;;;;0.60;0.60;;;10.50;64.90;;;;;;5006206;28;20876;-59
2023/01/15 10:54:30;;;;;;;0.80;0.60;;;10.50;65.60;;;;;;5000183;28;20453;-59
2023/01/15 10:57:17;;;;;;;0.97;0.80;;;10.10;64.50;;;;;;4999531;28;20599;-59
2023/01/15 10:59:46;;;;;;;0.60;0.60;;;9.90;67.00;;;;;;5005643;28;20452;-59
2023/01/15 11:02:27;;;;;;;0.50;0.50;;;9.40;67.20;;;;;;5005403;28;20449;-59
2023/01/15 11:04:53;;;;;;;0.97;0.67;;;9.10;69.60;;;;;;5004078;28;20523;-59
2023/01/15 11:07:22;;;;;;;1.27;0.40;;;9.20;70.20;;;;;;5009263;28;20844;-59
2023/01/15 11:09:48;;;;;;;0.50;0.50;;;8.90;69.10;;;;;;5007839;28;20190;-59
2023/01/15 11:20:34;;;;;;;0.63;0.60;;;8.90;69.20;;;;;;5009146;28;20838;-58
2023/01/15 11:23:11;;;;;;;0.70;0.60;;;8.70;68.80;;;;;;5005265;28;20491;-59
2023/01/15 11:25:46;;;;;;;0.57;0.53;;;8.60;69.40;;;;;;5004140;28;20535;-59
2023/01/15 11:28:14;;;;;;;0.90;0.70;;;8.60;69.50;;;;;;5008139;28;20474;-59
2023/01/15 11:30:40;;;;;;;0.50;0.50;;;8.60;69.60;;;;;;5009148;28;20795;-58
2023/01/15 11:33:25;;;;;;;0.70;0.50;;;8.70;69.00;;;;;;5006478;28;20883;-59
2023/01/15 11:35:56;;;;;;;0.70;0.67;;;8.60;68.70;;;;;;5009054;28;20514;-58
2023/01/15 11:38:23;;;;;;;0.70;0.53;;;8.40;69.30;;;;;;5006230;28;20456;-59
2023/01/15 11:41:18;;;;;;;1.00;0.50;;;8.30;69.20;;;;;;5006661;28;20835;-59
2023/01/15 11:52:21;;;;;;;1.13;0.60;;;8.00;69.60;;;;;;5004443;28;20513;-58
2023/01/15 11:54:49;;;;;;;0.70;0.60;;;;;;;;;;5008811;28;20444;-60
2023/01/15 11:57:31;;;;;;;0.60;0.60;;;8.50;68.90;;;;;;5007300;28;20861;-59
2023/01/15 11:59:58;;;;;;;0.57;0.50;;;8.40;69.20;;;;;;5000872;28;20445;-59
2023/01/15 12:02:59;;;;;;;0.67;0.60;;;8.50;68.30;;;;;;5007678;28;20448;-59
2023/01/15 12:05:29;;;;;;;0.60;0.50;;;8.70;68.40;;;;;;5009330;28;20465;-59
2023/01/15 12:08:00;;;;;;;0.60;0.60;;;8.50;67.90;;;;;;5006836;28;20521;-59
2023/01/15 12:11:03;;;;;;;1.30;0.93;;;8.60;67.90;;;;;;5023337;28;20952;-59
2023/01/15 12:14:08;;;;;;;3.10;0.70;;;8.60;67.70;;;;;;4994151;28;20795;-59
2023/01/15 12:16:46;;;;;;;0.90;0.80;;;8.90;66.30;;;;;;4996987;28;20501;-59
2023/01/15 12:19:18;;;;;;;3.03;0.70;;;8.80;66.20;;;;;;5006471;28;20807;-59
2023/01/15 12:22:11;;;;;;;0.73;0.60;;;8.50;65.60;;;;;;5007756;28;20936;-59
2023/01/15 12:24:47;;;;;;;0.97;0.60;;;8.70;66.80;;;;;;5008125;28;21142;-59
2023/01/15 12:27:25;;;;;;;1.07;1.00;;;8.90;66.30;;;;;;5013988;28;20528;-59
2023/01/15 12:29:59;;;;;;;1.23;0.63;;;9.10;64.90;;;;;;5014155;28;20909;-59
2023/01/15 12:32:32;;;;;;;0.70;0.70;;;9.00;64.00;;;;;;5012708;28;20868;-59
2023/01/15 12:35:05;;;;;;;2.20;0.90;;;9.00;64.30;;;;;;5007429;28;20445;-59
2023/01/15 12:37:49;;;;;;;1.00;1.00;;;9.00;63.80;;;;;;5012012;28;20488;-59
2023/01/15 12:40:18;;;;;;;1.03;0.77;;;9.20;64.00;;;;;;5009958;28;20520;-59
2023/01/15 12:45:36;;;;;;;1.40;1.00;;;9.10;62.90;;;;;;5007457;28;20947;-59
2023/01/15 12:48:12;;;;;;;0.80;0.80;;;9.50;63.00;;;;;;5009312;28;20882;-59
2023/01/15 12:50:45;;;;;;;1.00;0.90;;;9.50;62.00;;;;;;5012579;28;20455;-60
2023/01/15 12:53:18;;;;;;;1.20;0.87;;;9.50;61.10;;;;;;5012714;28;20452;-59
2023/01/15 12:56:06;;;;;;;1.47;1.30;;;9.40;60.70;;;;;;5012502;28;20456;-59
2023/01/15 12:59:00;;;;;;;2.80;2.20;;;9.50;61.50;;;;;;5005081;28;20515;-59
2023/01/15 13:01:44;;;;;;;8.37;6.57;;;9.30;60.60;;;;;;5004561;28;20841;-59
2023/01/15 13:04:23;;;;;;;1.90;1.70;;;9.50;62.60;;;;;;5001931;28;20956;-59
2023/01/15 13:06:56;;;;;;;1.73;1.60;;;9.50;60.80;;;;;;5008978;28;20429;-59
2023/01/15 13:10:06;;;;;;;1.70;1.17;;;9.50;61.50;;;;;;5000344;28;20542;-59
2023/01/15 13:12:33;;;;;;;1.03;0.93;;;9.40;61.00;;;;;;4996977;28;20469;-59
2023/01/15 13:15:00;;;;;;;1.53;1.17;;;9.50;61.20;;;;;;5007856;28;21051;-59
2023/01/15 13:17:55;;;;;;;1.80;1.70;;;9.70;61.10;;;;;;5012059;28;20527;-59
2023/01/15 13:20:44;;;;;;;1.93;1.10;;;10.00;59.50;;;;;;5004707;28;20492;-59
2023/01/15 13:23:39;;;;;;;1.90;1.10;;;10.10;59.00;;;;;;4999023;28;20464;-59
2023/01/15 13:26:23;;;;;;;1.13;0.90;;;10.20;58.80;;;;;;5008713;28;20458;-59
2023/01/15 13:29:15;;;;;;;0.80;0.80;;;10.40;58.10;;;;;;5010385;28;20524;-59
2023/01/15 13:31:53;;;;;;;0.67;0.67;;;10.20;57.10;;;;;;5007213;28;20471;-59
2023/01/15 13:34:28;;;;;;;2.63;0.73;;;10.10;57.20;;;;;;5003072;28;20449;-59
2023/01/15 13:36:58;;;;;;;0.90;0.70;;;10.20;57.10;;;;;;5009019;28;20546;-59
2023/01/15 13:39:31;;;;;;;1.00;0.67;;;10.30;57.20;;;;;;5006913;28;20434;-59
2023/01/15 13:44:49;;;;;;;0.50;0.50;;;10.30;57.60;;;;;;5009649;28;20464;-59
2023/01/15 13:47:25;;;;;;;0.60;0.60;;;10.30;57.80;;;;;;4996091;28;20513;-59
2023/01/15 13:49:58;;;;;;;0.93;0.60;;;10.30;58.00;;;;;;5010822;28;20546;-59
2023/01/15 13:52:33;;;;;;;2.13;0.80;;;10.30;57.70;;;;;;5005889;28;20467;-59
2023/01/15 13:55:17;;;;;;;0.80;0.80;;;10.10;58.20;;;;;;5003912;28;20456;-59
2023/01/15 13:57:43;;;;;;;1.13;1.03;;;10.20;58.70;;;;;;5000416;28;20579;-59
2023/01/15 14:00:37;;;;;;;1.20;0.70;;;10.20;57.80;;;;;;5007776;28;21058;-59
2023/01/15 14:03:25;;;;;;;1.07;0.77;;;10.30;57.80;;;;;;5004053;28;20467;-59
2023/01/15 14:05:55;;;;;;;1.53;0.90;;;10.10;57.80;;;;;;4993810;28;20429;-58